createdAt,value
2022-07-29T00:00:23.218Z,94.25
2022-07-29T00:02:55.788Z,95.17
2022-07-29T00:05:28.346Z,96.47
2022-07-29T00:08:00.798Z,97.16
2022-07-29T00:10:33.334Z,97.27
2022-07-29T00:13:05.818Z,98.65
2022-07-29T00:15:38.943Z,99.96
2022-07-29T00:18:11.338Z,100.00
2022-07-29T00:20:43.826Z,99.76
2022-07-29T00:23:16.215Z,98.94
2022-07-29T00:25:48.625Z,99.41
2022-07-29T00:28:21.029Z,97.71
2022-07-29T00:30:54.158Z,96.43
2022-07-29T00:33:26.537Z,96.15
2022-07-29T00:35:58.655Z,96.51
2022-07-29T00:38:31.165Z,96.03
2022-07-29T00:41:03.501Z,95.80
2022-07-29T00:43:35.943Z,95.88
2022-07-29T00:46:09.064Z,96.36
2022-07-29T00:48:41.537Z,97.92
2022-07-29T00:51:14.588Z,99.16
2022-07-29T00:53:51.225Z,99.83
2022-07-29T00:56:23.851Z,98.64
2022-07-29T00:58:57.478Z,99.08
2022-07-29T01:01:30.655Z,99.40
2022-07-29T01:04:03.201Z,98.56
2022-07-29T01:06:36.358Z,97.70
2022-07-29T01:09:09.871Z,97.81
2022-07-29T01:11:44.149Z,97.72
2022-07-29T01:14:17.552Z,98.71
2022-07-29T01:16:55.476Z,98.79
2022-07-29T01:19:53.651Z,98.60
2022-07-29T01:22:54.541Z,98.70
2022-07-29T01:25:53.170Z,97.89
2022-07-29T01:29:07.604Z,97.78
2022-07-29T01:31:59.315Z,97.57
2022-07-29T01:34:41.862Z,98.01
2022-07-29T01:37:20.157Z,99.85
2022-07-29T01:39:55.963Z,99.14
2022-07-29T01:42:32.824Z,99.74
2022-07-29T01:45:11.947Z,100.00
2022-07-29T01:47:47.729Z,100.00
2022-07-29T01:50:23.963Z,100.00
2022-07-29T01:53:00.807Z,100.00
2022-07-29T01:55:36.147Z,100.00
2022-07-29T01:58:09.782Z,99.92
2022-07-29T02:00:45.853Z,99.93
2022-07-29T02:03:19.783Z,99.86
2022-07-29T02:05:53.644Z,99.33
2022-07-29T02:08:27.669Z,99.34
2022-07-29T02:11:01.351Z,98.64
2022-07-29T02:13:36.403Z,98.03
2022-07-29T02:16:11.277Z,99.72
2022-07-29T02:18:46.324Z,100.00
2022-07-29T02:21:24.856Z,100.00
2022-07-29T02:24:00.248Z,100.00
2022-07-29T02:26:34.300Z,99.52
2022-07-29T02:29:09.392Z,99.11
2022-07-29T02:31:47.521Z,99.24
2022-07-29T02:34:21.847Z,99.42
2022-07-29T02:36:56.453Z,100.00
2022-07-29T02:39:30.561Z,99.94
2022-07-29T02:42:08.058Z,99.70
2022-07-29T02:44:40.614Z,99.50
2022-07-29T02:47:17.902Z,98.87
2022-07-29T02:49:58.167Z,99.34
2022-07-29T02:52:38.794Z,98.23
2022-07-29T02:55:17.187Z,98.21
2022-07-29T02:57:55.707Z,98.13
2022-07-29T03:00:30.699Z,97.54
2022-07-29T03:03:08.119Z,97.67
2022-07-29T03:05:41.109Z,97.98
2022-07-29T03:08:15.743Z,99.24
2022-07-29T03:10:49.124Z,99.55
2022-07-29T03:13:22.096Z,99.63
2022-07-29T03:15:55.589Z,100.00
2022-07-29T03:18:29.394Z,100.00
2022-07-29T03:21:02.211Z,100.00
2022-07-29T03:23:35.340Z,99.81
2022-07-29T03:26:09.339Z,98.78
2022-07-29T03:28:41.779Z,99.17
2022-07-29T03:31:14.548Z,98.96
2022-07-29T03:33:47.775Z,99.00
2022-07-29T03:36:20.207Z,99.15
2022-07-29T03:38:53.588Z,99.52
2022-07-29T03:41:26.665Z,100.00
2022-07-29T03:44:00.731Z,99.74
2022-07-29T03:46:36.201Z,98.59
2022-07-29T03:49:10.816Z,99.15
2022-07-29T03:51:43.935Z,99.40
2022-07-29T03:54:16.761Z,99.00
2022-07-29T03:56:53.247Z,98.79
2022-07-29T03:59:26.755Z,99.27
2022-07-29T04:02:00.623Z,100.00
2022-07-29T04:04:34.649Z,100.00
2022-07-29T04:07:07.003Z,100.00
2022-07-29T04:09:39.452Z,100.00
2022-07-29T04:12:11.899Z,100.00
2022-07-29T04:14:44.390Z,100.00
2022-07-29T04:17:17.239Z,100.00
2022-07-29T04:19:50.328Z,100.00
2022-07-29T04:22:22.692Z,100.00
2022-07-29T04:24:57.105Z,98.86
2022-07-29T04:27:32.646Z,99.25
2022-07-29T04:30:06.244Z,100.00
2022-07-29T04:32:38.602Z,100.00
2022-07-29T04:35:11.680Z,100.00
2022-07-29T04:37:44.204Z,100.00
2022-07-29T04:40:16.867Z,100.00
2022-07-29T04:42:49.542Z,100.00
2022-07-29T04:45:22.883Z,100.00
2022-07-29T04:47:55.500Z,100.00
2022-07-29T04:50:28.884Z,100.00
2022-07-29T04:53:01.305Z,100.00
2022-07-29T04:55:34.071Z,100.00
2022-07-29T04:58:07.698Z,100.00
2022-07-29T05:00:40.597Z,100.00
2022-07-29T05:03:13.036Z,100.00
2022-07-29T05:05:46.206Z,100.00
2022-07-29T05:08:18.642Z,100.00
2022-07-29T05:10:51.113Z,100.00
2022-07-29T05:13:23.797Z,100.00
2022-07-29T05:15:58.577Z,99.61
2022-07-29T05:18:30.990Z,98.13
2022-07-29T05:21:04.120Z,97.51
2022-07-29T05:23:36.583Z,96.64
2022-07-29T05:26:08.924Z,95.95
2022-07-29T05:28:41.318Z,94.01
2022-07-29T05:31:14.862Z,94.31
2022-07-29T05:33:47.303Z,94.49
2022-07-29T05:36:20.329Z,92.47
2022-07-29T05:38:52.751Z,92.01
2022-07-29T05:41:25.223Z,90.85
2022-07-29T05:43:58.045Z,91.25
2022-07-29T05:46:30.827Z,91.15
2022-07-29T05:49:04.581Z,90.75
2022-07-29T05:51:37.701Z,89.33
2022-07-29T05:54:10.965Z,88.65
2022-07-29T05:56:43.356Z,87.85
2022-07-29T05:59:18.348Z,87.55
2022-07-29T06:01:51.218Z,87.62
2022-07-29T06:04:23.793Z,88.30
2022-07-29T06:06:56.938Z,89.47
2022-07-29T06:09:29.503Z,90.89
2022-07-29T06:12:02.835Z,90.36
2022-07-29T06:14:35.420Z,90.02
2022-07-29T06:17:07.878Z,90.35
2022-07-29T06:19:40.512Z,89.06
2022-07-29T06:22:16.014Z,88.77
2022-07-29T06:24:48.448Z,87.46
2022-07-29T06:27:20.780Z,87.33
2022-07-29T06:29:53.165Z,85.39
2022-07-29T06:32:27.516Z,85.87
2022-07-29T06:35:24.530Z,84.42
2022-07-29T06:37:53.898Z,84.94
2022-07-29T06:40:48.901Z,83.54
2022-07-29T06:43:21.360Z,83.03
2022-07-29T06:45:55.278Z,82.22
2022-07-29T06:48:29.010Z,80.70
2022-07-29T06:51:02.033Z,80.09
2022-07-29T06:53:36.074Z,79.15
2022-07-29T06:56:09.068Z,78.55
2022-07-29T06:58:41.450Z,78.81
2022-07-29T07:01:13.967Z,77.72
2022-07-29T07:03:46.340Z,77.25
2022-07-29T07:06:18.742Z,76.45
2022-07-29T07:08:51.776Z,76.75
2022-07-29T07:11:24.395Z,75.84
2022-07-29T07:14:02.248Z,75.59
2022-07-29T07:16:35.879Z,73.49
2022-07-29T07:19:08.309Z,72.72
2022-07-29T07:21:40.736Z,71.95
2022-07-29T07:24:14.014Z,71.89
2022-07-29T07:26:46.778Z,70.93
2022-07-29T07:29:19.236Z,70.82
2022-07-29T07:31:51.741Z,69.92
2022-07-29T07:34:28.380Z,69.57
2022-07-29T07:37:02.201Z,68.44
2022-07-29T07:39:35.326Z,67.39
2022-07-29T07:42:14.725Z,67.08
2022-07-29T07:45:11.953Z,65.81
2022-07-29T07:47:41.091Z,67.54
2022-07-29T07:50:18.234Z,65.64
2022-07-29T07:52:52.588Z,65.75
2022-07-29T07:55:26.379Z,66.33
2022-07-29T07:57:58.931Z,64.55
2022-07-29T08:00:32.543Z,64.57
2022-07-29T08:03:05.280Z,65.16
2022-07-29T08:05:50.984Z,64.73
2022-07-29T08:08:23.368Z,64.71
2022-07-29T08:10:56.737Z,63.51
2022-07-29T08:13:30.413Z,62.94
2022-07-29T08:16:11.606Z,62.73
2022-07-29T08:18:45.578Z,62.51
2022-07-29T08:21:18.481Z,63.31
2022-07-29T08:23:59.691Z,60.60
2022-07-29T08:26:35.111Z,62.51
2022-07-29T08:29:07.611Z,60.28
2022-07-29T08:31:40.623Z,60.93
2022-07-29T08:34:13.100Z,59.28
2022-07-29T08:36:45.483Z,59.92
2022-07-29T08:39:23.306Z,57.25
2022-07-29T08:41:57.175Z,56.81
2022-07-29T08:44:31.308Z,55.48
2022-07-29T08:47:04.966Z,53.93
2022-07-29T08:49:38.496Z,55.52
2022-07-29T08:52:11.844Z,55.78
2022-07-29T08:54:44.781Z,53.55
2022-07-29T08:57:19.070Z,54.57
2022-07-29T08:59:54.920Z,54.11
2022-07-29T09:02:34.358Z,52.94
2022-07-29T09:05:08.159Z,50.67
2022-07-29T09:07:43.420Z,52.66
2022-07-29T09:10:15.835Z,51.93
2022-07-29T09:12:49.471Z,52.18
2022-07-29T09:15:21.868Z,50.65
2022-07-29T09:17:55.659Z,51.79
2022-07-29T09:20:48.926Z,50.30
2022-07-29T09:23:24.218Z,48.77
2022-07-29T09:26:06.266Z,47.56
2022-07-29T09:28:43.183Z,48.83
2022-07-29T09:31:15.665Z,49.49
2022-07-29T09:33:48.146Z,47.56
2022-07-29T09:36:20.588Z,47.17
2022-07-29T09:38:58.974Z,49.29
2022-07-29T09:41:45.569Z,47.15
2022-07-29T09:44:19.070Z,44.97
2022-07-29T09:46:59.365Z,45.82
2022-07-29T09:49:32.293Z,46.17
2022-07-29T09:52:26.161Z,45.47
2022-07-29T09:55:06.474Z,45.04
2022-07-29T09:57:39.008Z,43.77
2022-07-29T10:00:14.925Z,44.56
2022-07-29T10:02:47.942Z,43.78
2022-07-29T10:05:22.275Z,43.28
2022-07-29T10:07:57.150Z,42.68
2022-07-29T10:10:31.612Z,41.55
2022-07-29T10:13:09.963Z,42.25
2022-07-29T10:15:46.665Z,40.70
2022-07-29T10:18:20.259Z,43.62
2022-07-29T10:20:53.783Z,41.65
2022-07-29T10:23:26.583Z,42.00
2022-07-29T10:25:59.353Z,41.82
2022-07-29T10:28:32.383Z,40.59
2022-07-29T10:31:11.937Z,40.47
2022-07-29T10:33:53.871Z,40.81
2022-07-29T10:36:43.229Z,39.47
2022-07-29T10:39:41.758Z,38.80
2022-07-29T10:42:33.483Z,38.55
2022-07-29T10:45:08.004Z,39.73
2022-07-29T10:47:42.182Z,38.20
2022-07-29T10:50:17.405Z,38.90
2022-07-29T10:52:54.738Z,38.34
2022-07-29T10:55:36.753Z,39.02
2022-07-29T10:58:14.169Z,39.06
2022-07-29T11:00:47.627Z,38.33
2022-07-29T11:03:50.761Z,37.96
2022-07-29T11:06:26.578Z,37.12
2022-07-29T11:09:20.125Z,37.11
2022-07-29T11:11:53.478Z,37.85
2022-07-29T11:14:56.610Z,37.06
2022-07-29T11:17:37.564Z,37.37
2022-07-29T11:20:40.785Z,39.67
2022-07-29T11:23:27.443Z,37.42
2022-07-29T11:26:20.879Z,37.87
2022-07-29T11:29:03.338Z,37.56
2022-07-29T11:31:39.174Z,37.15
2022-07-29T11:34:20.911Z,36.34
2022-07-29T11:37:27.994Z,39.26
2022-07-29T11:40:19.340Z,36.14
2022-07-29T11:42:52.820Z,37.74
2022-07-29T11:45:41.557Z,36.27
2022-07-29T11:48:28.591Z,35.16
2022-07-29T11:51:10.429Z,35.44
2022-07-29T11:53:47.911Z,35.00
2022-07-29T11:56:31.335Z,35.33
2022-07-29T11:59:09.299Z,36.25
2022-07-29T12:02:06.633Z,34.13
2022-07-29T12:04:52.457Z,34.22
2022-07-29T12:07:34.720Z,32.71
2022-07-29T12:10:11.622Z,33.66
2022-07-29T12:12:53.343Z,34.08
2022-07-29T12:15:46.062Z,33.81
2022-07-29T12:18:24.383Z,32.75
2022-07-29T12:21:04.010Z,33.30
2022-07-29T12:23:36.375Z,34.27
2022-07-29T12:26:10.629Z,32.09
2022-07-29T12:28:54.692Z,34.80
2022-07-29T12:31:43.961Z,35.14
2022-07-29T12:34:17.878Z,35.76
2022-07-29T12:36:50.695Z,35.06
2022-07-29T12:39:23.235Z,34.54
2022-07-29T12:42:03.984Z,34.59
2022-07-29T12:44:47.853Z,34.81
2022-07-29T12:47:21.295Z,35.61
2022-07-29T12:50:09.463Z,34.97
2022-07-29T12:52:41.941Z,34.86
2022-07-29T12:55:14.859Z,32.84
2022-07-29T12:57:49.046Z,33.67
2022-07-29T13:00:23.913Z,33.57
2022-07-29T13:02:58.264Z,33.68
2022-07-29T13:05:41.538Z,33.98
2022-07-29T13:08:20.082Z,34.59
2022-07-29T13:10:54.567Z,33.41
2022-07-29T13:13:27.766Z,32.77
2022-07-29T13:16:07.718Z,33.85
2022-07-29T13:18:41.549Z,33.67
2022-07-29T13:21:16.314Z,33.54
2022-07-29T13:23:48.977Z,33.88
2022-07-29T13:26:21.362Z,32.73
2022-07-29T13:28:54.934Z,32.94
2022-07-29T13:31:27.511Z,34.17
2022-07-29T13:33:59.905Z,35.01
2022-07-29T13:36:32.350Z,36.92
2022-07-29T13:39:05.026Z,34.88
2022-07-29T13:41:37.496Z,34.15
2022-07-29T13:44:10.563Z,34.43
2022-07-29T13:46:42.969Z,33.23
2022-07-29T13:49:15.431Z,35.02
2022-07-29T13:51:47.874Z,34.33
2022-07-29T13:54:20.510Z,34.19
2022-07-29T13:56:52.965Z,35.01
2022-07-29T13:59:25.975Z,35.59
2022-07-29T14:01:58.576Z,35.37
2022-07-29T14:04:31.268Z,35.80
2022-07-29T14:07:04.131Z,36.87
2022-07-29T14:09:41.006Z,36.58
2022-07-29T14:12:21.297Z,36.92
2022-07-29T14:14:54.405Z,36.33
2022-07-29T14:17:26.922Z,37.41
2022-07-29T14:19:59.310Z,35.97
2022-07-29T14:22:31.743Z,36.35
2022-07-29T14:25:14.653Z,37.14
2022-07-29T14:27:47.842Z,36.80
2022-07-29T14:30:21.443Z,36.13
2022-07-29T14:32:53.799Z,36.92
2022-07-29T14:35:26.385Z,37.33
2022-07-29T14:37:58.857Z,36.49
2022-07-29T14:40:31.424Z,35.10
2022-07-29T14:43:03.819Z,35.29
2022-07-29T14:45:36.990Z,35.34
2022-07-29T14:48:09.439Z,35.95
2022-07-29T14:50:41.859Z,36.61
2022-07-29T14:53:14.471Z,38.39
2022-07-29T14:55:46.871Z,37.59
2022-07-29T14:58:20.051Z,37.40
2022-07-29T15:00:54.950Z,37.55
2022-07-29T15:03:28.039Z,37.81
2022-07-29T15:06:00.481Z,38.20
2022-07-29T15:08:32.844Z,38.26
2022-07-29T15:11:05.271Z,38.31
2022-07-29T15:13:37.615Z,38.90
2022-07-29T15:16:10.708Z,39.26
2022-07-29T15:18:43.427Z,38.94
2022-07-29T15:21:15.867Z,39.01
2022-07-29T15:23:48.234Z,40.13
2022-07-29T15:26:20.583Z,41.67
2022-07-29T15:28:53.099Z,41.74
2022-07-29T15:31:26.233Z,42.80
2022-07-29T15:34:01.290Z,43.52
2022-07-29T15:36:53.586Z,43.08
2022-07-29T15:39:26.083Z,43.77
2022-07-29T15:42:00.463Z,44.68
2022-07-29T15:44:33.291Z,45.12
2022-07-29T15:47:06.840Z,45.74
2022-07-29T15:49:48.786Z,46.44
2022-07-29T15:52:25.130Z,46.55
2022-07-29T15:54:59.591Z,48.55
2022-07-29T15:57:32.020Z,46.79
2022-07-29T16:00:05.539Z,46.05
2022-07-29T16:02:41.182Z,46.54
2022-07-29T16:05:13.599Z,46.41
2022-07-29T16:07:46.003Z,47.19
2022-07-29T16:10:18.457Z,47.59
2022-07-29T16:12:50.872Z,48.82
2022-07-29T16:15:23.463Z,48.24
2022-07-29T16:17:56.568Z,48.60
2022-07-29T16:20:28.970Z,48.06
2022-07-29T16:23:01.380Z,47.77
2022-07-29T16:25:58.618Z,45.90
2022-07-29T16:28:26.130Z,48.52
2022-07-29T16:30:58.588Z,49.52
2022-07-29T16:33:54.623Z,52.37
2022-07-29T16:36:24.228Z,48.81
2022-07-29T16:38:56.599Z,51.19
2022-07-29T16:41:29.035Z,50.01
2022-07-29T16:44:01.437Z,52.42
2022-07-29T16:46:36.511Z,54.22
2022-07-29T16:49:11.110Z,54.38
2022-07-29T16:51:43.563Z,53.62
2022-07-29T16:54:15.995Z,52.98
2022-07-29T16:56:48.504Z,53.26
2022-07-29T16:59:20.919Z,54.32
2022-07-29T17:01:53.462Z,53.15
2022-07-29T17:04:26.802Z,53.42
2022-07-29T17:06:59.918Z,53.50
2022-07-29T17:09:33.367Z,53.96
2022-07-29T17:12:06.311Z,54.80
2022-07-29T17:14:38.768Z,53.95
2022-07-29T17:17:13.712Z,56.01
2022-07-29T17:19:48.674Z,57.20
2022-07-29T17:22:21.060Z,57.43
2022-07-29T17:24:53.629Z,58.68
2022-07-29T17:27:26.039Z,58.85
2022-07-29T17:29:58.452Z,58.84
2022-07-29T17:32:35.667Z,57.91
2022-07-29T17:35:24.292Z,57.26
2022-07-29T17:37:56.877Z,55.15
2022-07-29T17:40:29.275Z,54.72
2022-07-29T17:43:01.644Z,55.03
2022-07-29T17:45:49.960Z,55.25
2022-07-29T17:48:23.322Z,55.61
2022-07-29T17:50:57.735Z,57.17
2022-07-29T17:53:30.215Z,58.10
2022-07-29T17:56:03.253Z,57.76
2022-07-29T17:58:35.774Z,54.88
2022-07-29T18:01:08.599Z,56.78
2022-07-29T18:03:41.375Z,58.04
2022-07-29T18:06:14.468Z,58.41
2022-07-29T18:08:47.226Z,57.95
2022-07-29T18:11:19.559Z,58.83
2022-07-29T18:13:52.155Z,59.53
2022-07-29T18:16:24.571Z,53.97
2022-07-29T18:18:56.998Z,58.58
2022-07-29T18:21:43.736Z,58.32
2022-07-29T18:24:24.509Z,59.21
2022-07-29T18:26:57.190Z,59.54
2022-07-29T18:29:29.775Z,59.51
2022-07-29T18:32:02.393Z,59.89
2022-07-29T18:34:34.805Z,57.15
2022-07-29T18:37:07.882Z,53.77
2022-07-29T18:39:40.317Z,58.18
2022-07-29T18:42:12.694Z,53.38
2022-07-29T18:44:49.109Z,56.09
2022-07-29T18:47:21.727Z,52.51
2022-07-29T18:49:54.139Z,56.66
2022-07-29T18:52:28.375Z,57.85
2022-07-29T18:55:01.830Z,58.55
2022-07-29T18:57:54.228Z,51.00
2022-07-29T19:00:27.333Z,55.27
2022-07-29T19:02:59.833Z,49.19
2022-07-29T19:05:32.489Z,53.86
2022-07-29T19:08:06.295Z,51.40
2022-07-29T19:10:38.640Z,51.38
2022-07-29T19:13:13.409Z,53.98
2022-07-29T19:15:46.105Z,51.14
2022-07-29T19:18:18.630Z,56.06
2022-07-29T19:20:51.102Z,55.74
2022-07-29T19:23:24.803Z,58.57
2022-07-29T19:25:58.790Z,58.43
2022-07-29T19:28:31.142Z,55.76
2022-07-29T19:31:03.976Z,54.16
2022-07-29T19:33:36.418Z,49.76
2022-07-29T19:36:08.784Z,52.15
2022-07-29T19:38:41.850Z,53.51
2022-07-29T19:41:16.339Z,56.97
2022-07-29T19:43:50.722Z,56.69
2022-07-29T19:46:28.036Z,53.16
2022-07-29T19:49:00.585Z,53.09
2022-07-29T19:51:33.168Z,57.56
2022-07-29T19:54:06.405Z,61.56
2022-07-29T19:56:39.483Z,62.48
2022-07-29T19:59:14.533Z,62.16
2022-07-29T20:01:46.919Z,62.81
2022-07-29T20:04:19.283Z,62.58
2022-07-29T20:06:55.083Z,62.61
2022-07-29T20:09:28.401Z,62.56
2022-07-29T20:12:00.868Z,62.22
2022-07-29T20:14:33.348Z,63.24
2022-07-29T20:17:06.036Z,62.94
2022-07-29T20:19:38.468Z,63.89
2022-07-29T20:22:11.203Z,66.15
2022-07-29T20:24:44.591Z,67.14
2022-07-29T20:27:17.628Z,68.44
2022-07-29T20:29:50.051Z,68.98
2022-07-29T20:32:22.432Z,68.37
2022-07-29T20:34:54.771Z,67.51
2022-07-29T20:37:27.174Z,68.01
2022-07-29T20:40:01.475Z,68.13
2022-07-29T20:42:33.963Z,68.40
2022-07-29T20:45:08.789Z,68.37
2022-07-29T20:47:41.476Z,69.05
2022-07-29T20:50:14.276Z,69.37
2022-07-29T20:52:46.742Z,67.78
2022-07-29T20:55:20.250Z,69.42
2022-07-29T20:57:52.766Z,70.64
2022-07-29T21:00:25.146Z,70.92
2022-07-29T21:02:57.655Z,70.49
2022-07-29T21:05:30.081Z,70.72
2022-07-29T21:08:02.639Z,71.84
2022-07-29T21:10:35.738Z,71.36
2022-07-29T21:13:08.770Z,71.13
2022-07-29T21:15:43.371Z,71.67
2022-07-29T21:18:26.560Z,71.94
2022-07-29T21:20:59.885Z,72.64
2022-07-29T21:23:32.407Z,70.79
2022-07-29T21:26:09.819Z,72.11
2022-07-29T21:28:44.679Z,72.82
2022-07-29T21:31:17.417Z,71.60
2022-07-29T21:33:49.811Z,72.05
2022-07-29T21:36:47.294Z,73.41
2022-07-29T21:39:14.592Z,73.40
2022-07-29T21:41:47.748Z,73.34
2022-07-29T21:44:21.123Z,74.09
2022-07-29T21:46:53.515Z,73.28
2022-07-29T21:49:25.949Z,73.53
2022-07-29T21:51:58.321Z,74.87
2022-07-29T21:54:32.036Z,75.96
2022-07-29T21:57:05.311Z,76.97
2022-07-29T21:59:37.815Z,77.52
2022-07-29T22:02:10.189Z,77.28
2022-07-29T22:04:42.590Z,76.18
2022-07-29T22:07:15.083Z,75.74
2022-07-29T22:09:47.450Z,76.44
2022-07-29T22:12:20.506Z,77.11
2022-07-29T22:14:53.319Z,77.95
2022-07-29T22:17:25.791Z,77.85
2022-07-29T22:19:58.339Z,78.40
2022-07-29T22:22:30.747Z,79.78
2022-07-29T22:25:04.188Z,80.13
2022-07-29T22:27:37.595Z,81.27
2022-07-29T22:30:11.326Z,80.55
2022-07-29T22:32:43.812Z,80.26
2022-07-29T22:35:16.770Z,79.66
2022-07-29T22:37:50.412Z,79.88
2022-07-29T22:40:22.791Z,80.03
2022-07-29T22:43:04.342Z,79.81
2022-07-29T22:45:36.865Z,80.62
2022-07-29T22:48:09.851Z,81.15
2022-07-29T22:50:42.320Z,81.27
2022-07-29T22:53:14.754Z,81.67
2022-07-29T22:55:47.120Z,82.39
2022-07-29T22:58:20.114Z,81.47
2022-07-29T23:00:52.599Z,81.52
2022-07-29T23:03:25.324Z,81.16
2022-07-29T23:05:57.768Z,80.55
2022-07-29T23:08:30.216Z,81.17
2022-07-29T23:11:02.564Z,81.95
2022-07-29T23:13:36.119Z,81.40
2022-07-29T23:16:08.574Z,81.00
2022-07-29T23:18:40.983Z,80.49
2022-07-29T23:21:13.678Z,80.63
2022-07-29T23:23:46.287Z,81.41
2022-07-29T23:26:18.707Z,82.69
2022-07-29T23:28:51.790Z,82.27
2022-07-29T23:31:24.335Z,82.65
2022-07-29T23:33:56.719Z,84.81
2022-07-29T23:36:29.306Z,85.29
2022-07-29T23:39:01.742Z,85.25
2022-07-29T23:41:34.292Z,85.00
2022-07-29T23:44:07.440Z,84.05
2022-07-29T23:46:39.943Z,83.70
2022-07-29T23:49:13.310Z,83.63
2022-07-29T23:51:45.681Z,83.53
2022-07-29T23:54:18.106Z,83.42
2022-07-29T23:56:50.524Z,83.32
2022-07-29T23:59:23.971Z,84.67
